Time;durP1;ratioP1;P1;durP2;ratioP2;P2;SDS_P1;SDS_P2;PMS_P1;PMS_P2;Temp;Humidity;BMP_temperature;BMP_pressure;BME280_temperature;BME280_humidity;BME280_pressure;Samples;Min_cycle;Max_cycle;Signal;HPM_P1;HPM_P2
2022/11/28 00:01:18;;;;;;;13.68;6.47;;;-2.30;99.90;;;;;;4992941;28;20046;-78
2022/11/28 00:03:47;;;;;;;12.13;6.30;;;-2.30;99.90;;;;;;4992312;28;20050;-78
2022/11/28 00:06:16;;;;;;;11.73;6.00;;;-2.30;99.90;;;;;;4993170;28;20050;-78
2022/11/28 00:08:44;;;;;;;8.68;5.68;;;-2.20;99.90;;;;;;4993194;28;20435;-79
2022/11/28 00:11:15;;;;;;;11.20;6.53;;;-2.20;99.90;;;;;;4991759;28;20073;-77
2022/11/28 00:13:44;;;;;;;12.85;6.47;;;-2.20;99.90;;;;;;4992554;28;20058;-77
2022/11/28 00:16:16;;;;;;;9.82;5.82;;;-2.30;99.90;;;;;;4974818;28;20052;-79
2022/11/28 00:18:44;;;;;;;11.13;6.07;;;-2.30;99.90;;;;;;4992696;28;20149;-77
2022/11/28 00:21:15;;;;;;;10.55;5.47;;;-2.20;99.90;;;;;;4991055;28;20054;-77
2022/11/28 00:23:44;;;;;;;11.27;6.45;;;-2.20;99.90;;;;;;4990354;28;20419;-77
2022/11/28 00:26:17;;;;;;;11.13;6.40;;;-2.30;99.90;;;;;;4990900;28;20050;-79
2022/11/28 00:28:46;;;;;;;10.80;6.30;;;-2.30;99.90;;;;;;4991451;28;20054;-78
2022/11/28 00:31:15;;;;;;;10.32;5.40;;;-2.30;99.90;;;;;;4992017;28;20061;-79
2022/11/28 00:33:42;;;;;;;10.75;5.72;;;-2.30;99.90;;;;;;4992225;28;20574;-78
2022/11/28 00:36:12;;;;;;;10.77;5.57;;;-2.30;99.90;;;;;;4992026;28;20050;-78
2022/11/28 00:38:40;;;;;;;11.23;5.32;;;-2.20;99.90;;;;;;4974335;28;20139;-80
2022/11/28 00:41:10;;;;;;;12.75;6.78;;;-2.20;99.90;;;;;;4990440;28;20070;-79
2022/11/28 00:43:39;;;;;;;8.63;5.65;;;-2.20;99.90;;;;;;4990800;28;20085;-79
2022/11/28 00:46:07;;;;;;;10.23;5.70;;;-2.20;99.90;;;;;;4992231;28;20129;-77
2022/11/28 00:48:35;;;;;;;11.07;5.18;;;-2.20;99.90;;;;;;4990754;28;20527;-80
2022/11/28 00:51:08;;;;;;;9.52;5.60;;;-2.20;99.90;;;;;;4990480;28;20058;-79
2022/11/28 00:53:39;;;;;;;10.63;6.07;;;-2.30;99.90;;;;;;4992416;28;20105;-79
2022/11/28 00:56:08;;;;;;;10.20;6.05;;;-2.30;99.90;;;;;;4991735;28;20518;-77
2022/11/28 00:58:37;;;;;;;11.05;5.07;;;-2.30;99.90;;;;;;4992433;28;20137;-78
2022/11/28 01:01:09;;;;;;;10.20;5.97;;;-2.40;99.90;;;;;;4991285;28;20425;-77
2022/11/28 01:03:37;;;;;;;8.65;5.47;;;-2.40;99.90;;;;;;4991770;28;20517;-78
2022/11/28 01:06:06;;;;;;;11.23;5.85;;;-2.40;99.90;;;;;;4991807;28;20054;-78
2022/11/28 01:08:34;;;;;;;9.77;6.18;;;-2.30;99.90;;;;;;4974162;28;20154;-78
2022/11/28 01:11:03;;;;;;;8.20;4.53;;;-2.30;99.90;;;;;;4990171;28;20054;-78
2022/11/28 01:13:30;;;;;;;8.07;5.00;;;-2.20;99.90;;;;;;4991902;28;20054;-78
2022/11/28 01:15:58;;;;;;;10.50;5.68;;;-2.20;99.90;;;;;;4991712;28;20050;-77
2022/11/28 01:18:26;;;;;;;7.72;4.78;;;-2.20;99.90;;;;;;4991226;28;20054;-77
2022/11/28 01:20:53;;;;;;;11.25;5.55;;;-2.20;99.90;;;;;;4990129;28;20054;-78
2022/11/28 01:23:20;;;;;;;9.88;5.28;;;-2.20;99.90;;;;;;4991579;28;20510;-77
2022/11/28 01:25:48;;;;;;;9.93;5.30;;;-2.20;99.90;;;;;;4990101;28;21035;-77
2022/11/28 01:28:17;;;;;;;10.38;5.22;;;-2.20;99.90;;;;;;4990140;28;20101;-77
2022/11/28 01:30:44;;;;;;;8.13;4.70;;;-2.20;99.90;;;;;;4990369;28;20501;-78
2022/11/28 01:33:11;;;;;;;8.75;5.30;;;-2.30;99.90;;;;;;4989983;28;20051;-77
2022/11/28 01:35:39;;;;;;;10.80;5.93;;;-2.30;99.90;;;;;;4991359;28;20145;-77
2022/11/28 01:38:06;;;;;;;8.77;4.93;;;-2.30;99.90;;;;;;4990442;28;20053;-77
2022/11/28 01:40:34;;;;;;;9.32;5.15;;;-2.30;99.90;;;;;;4991152;28;20054;-76
2022/11/28 01:43:01;;;;;;;7.93;4.32;;;-2.30;99.90;;;;;;4989653;28;20050;-77
2022/11/28 01:45:35;;;;;;;10.85;5.38;;;-2.30;99.90;;;;;;4989790;28;20050;-77
2022/11/28 01:48:04;;;;;;;10.18;4.80;;;-2.30;99.90;;;;;;4989945;28;20072;-77
2022/11/28 01:50:35;;;;;;;7.57;4.65;;;-2.30;99.90;;;;;;4990889;28;20510;-77
2022/11/28 01:53:07;;;;;;;7.03;4.35;;;-2.30;99.90;;;;;;4989866;28;20150;-77
2022/11/28 01:55:43;;;;;;;7.38;3.90;;;-2.30;99.90;;;;;;4991300;28;20054;-77
2022/11/28 01:58:12;;;;;;;8.30;4.65;;;-2.40;99.90;;;;;;4974062;28;20042;-77
2022/11/28 02:00:41;;;;;;;6.72;4.57;;;-2.40;99.90;;;;;;4973499;28;20046;-77
2022/11/28 02:03:13;;;;;;;7.47;4.82;;;-2.40;99.90;;;;;;4989593;28;20081;-76
2022/11/28 02:05:41;;;;;;;7.90;4.53;;;-2.50;99.90;;;;;;4989793;28;20050;-76
2022/11/28 02:08:09;;;;;;;8.48;5.25;;;-2.50;99.90;;;;;;4991020;28;20050;-78
2022/11/28 02:10:52;;;;;;;6.28;4.72;;;-2.50;99.90;;;;;;4991009;28;20320;-76
2022/11/28 02:13:35;;;;;;;8.50;5.00;;;-2.60;99.90;;;;;;4993576;28;20053;-77
2022/11/28 02:16:50;;;;;;;8.60;6.07;;;-2.60;99.90;;;;;;4993571;28;20463;-77
2022/11/28 02:19:54;;;;;;;8.85;5.53;;;-2.80;99.90;;;;;;4994779;28;20665;-78
2022/11/28 02:22:26;;;;;;;9.50;5.20;;;-2.90;99.90;;;;;;4994846;28;20050;-77
2022/11/28 02:25:30;;;;;;;10.23;5.88;;;-2.90;99.90;;;;;;4977000;28;20523;-77
2022/11/28 02:28:18;;;;;;;;;;;-2.90;99.90;;;;;;4977935;28;20046;-77
2022/11/28 02:30:58;;;;;;;9.80;5.30;;;-3.00;99.90;;;;;;4993753;28;19972;-77
2022/11/28 02:33:32;;;;;;;11.00;5.68;;;-2.90;99.90;;;;;;4993680;28;20068;-77
2022/11/28 02:36:12;;;;;;;7.65;5.15;;;-3.00;99.90;;;;;;4992893;28;20104;-77
2022/11/28 02:38:53;;;;;;;6.55;4.45;;;-3.00;99.90;;;;;;4993160;28;20133;-77
2022/11/28 02:41:31;;;;;;;6.00;4.20;;;-3.00;99.90;;;;;;4994102;28;20070;-76
2022/11/28 02:44:09;;;;;;;6.43;4.18;;;-3.00;99.90;;;;;;4994327;28;20064;-77
2022/11/28 02:46:49;;;;;;;6.60;4.18;;;-3.00;99.90;;;;;;4994306;28;20112;-77
2022/11/28 02:49:23;;;;;;;8.77;4.70;;;-3.00;99.90;;;;;;4992647;28;20124;-78
2022/11/28 02:51:55;;;;;;;6.38;4.65;;;-3.10;99.90;;;;;;4994077;28;20491;-76
2022/11/28 02:54:25;;;;;;;5.85;4.53;;;-3.10;99.90;;;;;;4993954;28;20054;-76
2022/11/28 02:56:54;;;;;;;7.03;4.35;;;-3.10;99.90;;;;;;4993938;28;20134;-77
2022/11/28 02:59:47;;;;;;;5.70;3.50;;;-3.00;99.90;;;;;;4993580;28;20054;-76
2022/11/28 03:02:21;;;;;;;5.22;4.00;;;-3.10;99.90;;;;;;4993912;28;20517;-75
2022/11/28 03:04:58;;;;;;;6.00;4.68;;;-3.20;99.90;;;;;;4994247;28;20061;-76
2022/11/28 03:07:52;;;;;;;5.45;4.30;;;-3.20;99.90;;;;;;4992750;28;20502;-76
2022/11/28 03:10:27;;;;;;;7.35;5.03;;;-3.20;99.90;;;;;;4993903;28;20050;-76
2022/11/28 03:13:07;;;;;;;5.35;4.20;;;-3.20;99.90;;;;;;4994002;28;20058;-76
2022/11/28 03:16:00;;;;;;;8.18;5.38;;;-3.20;99.90;;;;;;4992673;28;20125;-76
2022/11/28 03:18:35;;;;;;;6.57;4.85;;;-3.20;99.90;;;;;;4976490;28;20304;-76
2022/11/28 03:21:13;;;;;;;6.18;4.45;;;-3.30;99.90;;;;;;4992091;28;20077;-77
2022/11/28 03:23:46;;;;;;;4.65;4.20;;;-3.30;99.90;;;;;;4993578;28;20050;-76
2022/11/28 03:26:25;;;;;;;7.70;4.72;;;-3.20;99.90;;;;;;4992165;28;20046;-76
2022/11/28 03:29:00;;;;;;;5.55;3.92;;;-3.30;99.90;;;;;;4992065;28;20074;-77
2022/11/28 03:31:35;;;;;;;8.00;4.22;;;-3.30;99.90;;;;;;4993397;28;20585;-76
2022/11/28 03:34:07;;;;;;;7.88;4.57;;;-3.40;99.90;;;;;;4993339;28;20060;-77
2022/11/28 03:36:41;;;;;;;5.55;4.30;;;-3.40;99.90;;;;;;4991994;28;20054;-75
2022/11/28 03:39:13;;;;;;;9.60;4.88;;;-3.40;99.90;;;;;;4991900;28;20061;-75
2022/11/28 03:41:45;;;;;;;7.17;4.77;;;-3.40;99.90;;;;;;4993085;28;20046;-77
2022/11/28 03:44:21;;;;;;;6.57;3.70;;;-3.40;99.90;;;;;;4992000;28;20400;-77
2022/11/28 03:46:50;;;;;;;5.45;4.32;;;-3.40;99.90;;;;;;4993026;28;20073;-75
2022/11/28 03:49:25;;;;;;;6.70;4.43;;;-3.40;99.90;;;;;;4993167;28;20053;-76
2022/11/28 03:51:58;;;;;;;6.55;4.22;;;-3.30;99.90;;;;;;4992840;28;20061;-76
2022/11/28 03:54:33;;;;;;;6.50;4.25;;;-3.30;99.90;;;;;;4991719;28;20144;-75
2022/11/28 03:57:08;;;;;;;5.70;3.72;;;-3.30;99.90;;;;;;4991524;28;20058;-76
2022/11/28 03:59:38;;;;;;;5.28;3.80;;;-3.30;99.90;;;;;;4992714;28;20054;-76
2022/11/28 04:02:16;;;;;;;6.93;4.13;;;-3.40;99.90;;;;;;4992695;28;20058;-76
2022/11/28 04:04:52;;;;;;;9.68;4.53;;;-3.40;99.90;;;;;;4988865;28;20141;-76
2022/11/28 04:07:30;;;;;;;7.55;4.22;;;-3.30;99.90;;;;;;4991311;28;20423;-76
2022/11/28 04:10:07;;;;;;;8.48;4.90;;;-3.30;99.90;;;;;;4992246;28;20097;-77
2022/11/28 04:12:53;;;;;;;6.47;4.53;;;-3.30;99.90;;;;;;4992518;28;20062;-76
2022/11/28 04:15:29;;;;;;;7.90;4.63;;;-3.40;99.90;;;;;;4992123;28;20100;-80
2022/11/28 04:18:02;;;;;;;7.55;4.72;;;-3.40;99.90;;;;;;4991276;28;20148;-80
2022/11/28 04:20:36;;;;;;;8.07;4.68;;;-3.40;99.90;;;;;;4992561;28;20396;-79
2022/11/28 04:23:10;;;;;;;7.30;4.78;;;-3.30;99.90;;;;;;4992346;28;20154;-79
2022/11/28 04:25:42;;;;;;;8.32;5.10;;;-3.30;99.90;;;;;;4993181;28;20074;-76
2022/11/28 04:28:15;;;;;;;7.47;5.18;;;-3.40;99.90;;;;;;4993601;28;20141;-77
2022/11/28 04:30:44;;;;;;;;;;;-3.40;99.90;;;;;;4994104;28;20065;-81
2022/11/28 04:37:20;;;;;;;;;;;;;;;;;;;;;
2022/11/28 04:39:56;;;;;;;9.10;4.95;;;-3.50;99.90;;;;;;4992415;28;20058;-77
2022/11/28 04:42:32;;;;;;;10.02;5.20;;;-3.50;99.90;;;;;;4990594;28;20054;-78
2022/11/28 04:45:11;;;;;;;11.73;5.85;;;-3.50;99.90;;;;;;4971786;28;20042;-75
2022/11/28 04:47:44;;;;;;;13.57;5.70;;;-3.50;99.90;;;;;;4991696;28;20126;-75
2022/11/28 04:50:13;;;;;;;12.18;5.95;;;-3.50;99.90;;;;;;4991584;28;20054;-73
2022/11/28 04:52:47;;;;;;;11.13;6.03;;;-3.50;99.90;;;;;;4973232;28;20081;-76
2022/11/28 04:55:28;;;;;;;9.00;5.13;;;-3.50;99.90;;;;;;4991970;28;20129;-76
2022/11/28 04:58:06;;;;;;;8.15;5.22;;;-3.40;99.90;;;;;;4988337;28;20046;-75
2022/11/28 05:00:39;;;;;;;13.70;5.50;;;-3.50;99.90;;;;;;4989414;28;20064;-75
2022/11/28 05:03:08;;;;;;;12.05;5.72;;;-3.40;99.90;;;;;;4988623;28;20465;-75
2022/11/28 05:05:44;;;;;;;10.07;5.40;;;-3.40;99.90;;;;;;4988710;28;20046;-75
2022/11/28 05:08:12;;;;;;;8.63;5.03;;;-3.50;99.90;;;;;;4990606;28;20149;-75
2022/11/28 05:10:41;;;;;;;10.30;5.50;;;-3.50;99.90;;;;;;4985182;28;20046;-76
2022/11/28 05:13:09;;;;;;;9.20;5.10;;;-3.40;99.90;;;;;;4991037;28;20141;-77
2022/11/28 05:15:36;;;;;;;9.13;5.65;;;-3.40;99.90;;;;;;4989885;28;20064;-77
2022/11/28 05:18:04;;;;;;;8.45;4.82;;;-3.30;99.90;;;;;;4992071;28;20093;-77
2022/11/28 05:20:32;;;;;;;7.93;4.53;;;-3.30;99.90;;;;;;4989882;28;20137;-77
2022/11/28 05:23:00;;;;;;;8.85;5.20;;;-3.30;99.90;;;;;;4989024;28;20189;-77
2022/11/28 05:25:27;;;;;;;6.88;4.38;;;-3.20;99.90;;;;;;4990246;28;20050;-79
2022/11/28 05:27:55;;;;;;;7.53;4.88;;;-3.20;99.90;;;;;;4989214;28;20054;-77
2022/11/28 05:30:23;;;;;;;6.07;4.50;;;-3.30;99.90;;;;;;4988146;28;20136;-77
2022/11/28 05:32:50;;;;;;;7.60;4.97;;;-3.40;99.90;;;;;;4990368;28;20046;-77
2022/11/28 05:35:18;;;;;;;7.72;4.32;;;-3.30;99.90;;;;;;4990829;28;20057;-77
2022/11/28 05:37:45;;;;;;;6.93;4.78;;;-3.40;99.90;;;;;;4990142;28;20050;-77
2022/11/28 05:40:13;;;;;;;5.57;3.95;;;-3.40;99.90;;;;;;4991271;28;20499;-77
2022/11/28 05:42:40;;;;;;;6.05;4.20;;;-3.40;99.90;;;;;;4989945;28;20060;-77
2022/11/28 05:45:10;;;;;;;9.75;4.75;;;-3.40;99.90;;;;;;4989206;28;20057;-79
2022/11/28 05:47:38;;;;;;;6.90;4.47;;;-3.40;99.90;;;;;;4993897;28;20129;-78
2022/11/28 05:50:07;;;;;;;5.53;4.72;;;-3.30;99.90;;;;;;4995275;28;20145;-77
2022/11/28 05:52:35;;;;;;;7.38;5.07;;;-3.40;99.90;;;;;;4995479;28;20053;-76
2022/11/28 05:55:02;;;;;;;6.95;4.72;;;-3.30;99.90;;;;;;4995174;28;20133;-76
2022/11/28 05:57:32;;;;;;;6.95;4.60;;;-3.30;99.90;;;;;;4995414;28;20087;-77
2022/11/28 06:00:00;;;;;;;8.02;5.25;;;-3.30;99.90;;;;;;4995254;28;20070;-73
2022/11/28 06:02:29;;;;;;;8.18;5.25;;;-3.20;99.90;;;;;;4994340;28;20038;-73
2022/11/28 06:04:56;;;;;;;9.40;6.28;;;-3.20;99.90;;;;;;4993085;28;20046;-73
2022/11/28 06:07:23;;;;;;;9.52;6.18;;;-3.20;99.90;;;;;;4994903;28;20042;-74
2022/11/28 06:09:51;;;;;;;9.73;6.30;;;-3.30;99.90;;;;;;4995003;28;20057;-73
2022/11/28 06:12:18;;;;;;;8.95;5.32;;;-3.20;99.90;;;;;;4994826;28;20422;-74
2022/11/28 06:14:46;;;;;;;8.82;5.82;;;-3.20;99.90;;;;;;4995582;28;20081;-74
2022/11/28 06:17:13;;;;;;;10.13;5.90;;;-3.20;99.90;;;;;;4992735;28;20046;-74
2022/11/28 06:19:46;;;;;;;10.15;5.93;;;-3.20;99.90;;;;;;4994675;28;20050;-75
2022/11/28 06:22:14;;;;;;;7.75;5.10;;;-3.20;99.90;;;;;;4991441;28;23200;-75
2022/11/28 06:24:41;;;;;;;9.70;5.65;;;-3.10;99.90;;;;;;4982797;28;20406;-73
2022/11/28 06:27:09;;;;;;;12.50;5.82;;;-3.10;99.90;;;;;;4993757;28;20141;-73
2022/11/28 06:29:36;;;;;;;10.00;6.43;;;-3.00;99.90;;;;;;4985187;28;20561;-73
2022/11/28 06:32:06;;;;;;;11.18;6.05;;;-3.00;99.90;;;;;;5002564;28;20120;-75
2022/11/28 06:34:33;;;;;;;11.70;6.10;;;-3.00;99.90;;;;;;4985855;28;20058;-72
2022/11/28 06:37:02;;;;;;;13.07;7.15;;;-3.00;99.90;;;;;;4975090;28;20047;-73
2022/11/28 06:39:30;;;;;;;11.45;6.50;;;-2.90;99.90;;;;;;4992806;28;20097;-73
2022/11/28 06:41:58;;;;;;;16.48;6.55;;;-3.00;99.90;;;;;;4991124;28;20466;-73
2022/11/28 06:44:25;;;;;;;11.02;6.32;;;-2.90;99.90;;;;;;4992690;28;20150;-75
2022/11/28 06:46:53;;;;;;;10.35;6.45;;;-2.90;99.90;;;;;;4993851;28;20498;-74
2022/11/28 06:49:21;;;;;;;17.70;6.47;;;-2.90;99.90;;;;;;4993231;28;20050;-75
2022/11/28 06:51:48;;;;;;;11.48;6.28;;;-3.00;99.90;;;;;;4991491;28;20054;-76
2022/11/28 06:54:18;;;;;;;12.60;7.13;;;-3.00;99.90;;;;;;5004781;28;20066;-76
2022/11/28 06:56:45;;;;;;;13.48;7.35;;;-2.90;99.90;;;;;;4990200;28;20050;-73
2022/11/28 06:59:13;;;;;;;12.38;7.22;;;-2.80;99.90;;;;;;4992214;28;20061;-75
2022/11/28 07:01:40;;;;;;;11.13;6.93;;;-2.70;99.90;;;;;;4991753;28;20145;-75
2022/11/28 07:04:09;;;;;;;15.10;8.00;;;-2.70;99.90;;;;;;4991157;28;20057;-75
2022/11/28 07:06:36;;;;;;;13.10;7.90;;;-2.70;99.90;;;;;;4992865;28;20507;-73
2022/11/28 07:09:04;;;;;;;12.70;7.80;;;-2.70;99.90;;;;;;5008449;28;20507;-73
2022/11/28 07:11:33;;;;;;;13.50;7.90;;;-2.70;99.90;;;;;;4993608;28;20054;-72
2022/11/28 07:14:03;;;;;;;13.20;8.27;;;-2.70;99.90;;;;;;4991533;28;20090;-75
2022/11/28 07:16:32;;;;;;;12.63;8.10;;;-2.60;99.90;;;;;;5008049;28;20061;-77
2022/11/28 07:19:00;;;;;;;16.15;8.18;;;-2.60;99.90;;;;;;4989840;28;20055;-77
2022/11/28 07:21:29;;;;;;;11.65;6.05;;;-2.60;99.90;;;;;;4988364;28;20042;-77
2022/11/28 07:23:58;;;;;;;9.45;5.93;;;-2.50;99.90;;;;;;4993141;28;20050;-78
2022/11/28 07:26:28;;;;;;;11.27;5.80;;;-2.60;99.90;;;;;;5007045;28;20132;-76
2022/11/28 07:28:58;;;;;;;8.63;5.88;;;-2.60;99.90;;;;;;4993385;28;20054;-78
2022/11/28 07:31:30;;;;;;;11.68;5.95;;;-2.60;99.90;;;;;;4991678;28;20058;-78
2022/11/28 07:34:02;;;;;;;9.23;6.18;;;-2.60;99.90;;;;;;4993548;28;20065;-76
2022/11/28 07:36:30;;;;;;;9.00;6.47;;;-2.60;99.90;;;;;;4990468;28;20038;-76
2022/11/28 07:39:04;;;;;;;10.85;7.20;;;-2.60;99.90;;;;;;4985879;28;20430;-77
2022/11/28 07:41:32;;;;;;;15.35;8.02;;;-2.60;99.90;;;;;;4991346;28;20089;-76
2022/11/28 07:44:03;;;;;;;17.55;8.07;;;-2.50;99.90;;;;;;4990798;28;20050;-75
2022/11/28 07:46:33;;;;;;;10.93;6.93;;;-2.40;99.90;;;;;;4992529;28;20549;-75
2022/11/28 07:49:01;;;;;;;13.93;7.10;;;-2.40;99.90;;;;;;4974820;28;20086;-74
2022/11/28 07:51:31;;;;;;;14.05;7.22;;;-2.40;99.90;;;;;;4991308;28;20046;-74
2022/11/28 07:54:00;;;;;;;13.70;7.25;;;-2.40;99.90;;;;;;5007629;28;20058;-74
2022/11/28 07:56:31;;;;;;;11.30;6.22;;;-2.40;99.90;;;;;;4994767;28;20073;-74
2022/11/28 07:59:03;;;;;;;11.65;6.40;;;-2.40;99.90;;;;;;4991011;28;20140;-73
2022/11/28 08:01:35;;;;;;;11.02;6.82;;;-2.30;99.90;;;;;;4992283;28;20519;-74
2022/11/28 08:04:06;;;;;;;12.30;6.60;;;-2.20;99.90;;;;;;4990238;28;20065;-75
2022/11/28 08:06:38;;;;;;;11.65;7.57;;;-2.10;99.90;;;;;;4992206;28;20058;-75
2022/11/28 08:09:06;;;;;;;14.65;8.30;;;-2.10;99.90;;;;;;4991606;28;20054;-75
2022/11/28 08:11:35;;;;;;;13.60;6.95;;;-2.10;99.90;;;;;;4992111;28;20053;-75
2022/11/28 08:14:04;;;;;;;11.35;7.05;;;-2.00;99.90;;;;;;4991951;28;20136;-77
2022/11/28 08:16:32;;;;;;;11.05;6.47;;;-2.00;99.90;;;;;;4991248;28;20104;-76
2022/11/28 08:19:01;;;;;;;12.35;7.03;;;-2.00;99.90;;;;;;4986835;28;20053;-74
2022/11/28 08:21:33;;;;;;;11.35;6.47;;;-2.10;99.90;;;;;;4982538;28;20057;-75
2022/11/28 08:24:03;;;;;;;13.32;7.65;;;-2.10;99.90;;;;;;4993277;28;20062;-75
2022/11/28 08:26:32;;;;;;;11.68;6.35;;;-2.20;99.90;;;;;;4993601;28;20054;-75
2022/11/28 08:29:00;;;;;;;10.90;5.90;;;-2.10;99.90;;;;;;4990166;28;20073;-73
2022/11/28 08:31:31;;;;;;;9.45;6.05;;;-2.10;99.90;;;;;;4971246;28;20151;-74
2022/11/28 08:34:02;;;;;;;7.28;5.65;;;-2.10;99.90;;;;;;4995292;28;20054;-73
2022/11/28 08:36:30;;;;;;;11.25;5.93;;;-2.10;99.90;;;;;;4978202;28;20074;-73
2022/11/28 08:39:00;;;;;;;9.57;5.35;;;-2.10;99.90;;;;;;4976406;28;20051;-73
2022/11/28 08:41:27;;;;;;;11.10;6.38;;;-2.10;99.90;;;;;;4989756;28;20130;-72
2022/11/28 08:43:55;;;;;;;9.40;5.55;;;-2.10;99.90;;;;;;4989949;28;20046;-74
2022/11/28 08:46:24;;;;;;;8.75;5.22;;;-2.20;99.90;;;;;;4988274;28;20046;-74
2022/11/28 08:48:53;;;;;;;7.45;5.30;;;-2.20;99.90;;;;;;4988591;28;20107;-75
2022/11/28 08:51:23;;;;;;;8.75;5.60;;;-2.20;99.90;;;;;;4972716;28;20046;-74
2022/11/28 08:53:53;;;;;;;11.75;5.85;;;-2.20;99.90;;;;;;4989103;28;20454;-73
2022/11/28 08:56:20;;;;;;;10.02;6.22;;;-2.30;99.90;;;;;;4988767;28;20779;-73
2022/11/28 08:58:51;;;;;;;11.88;6.43;;;-2.30;99.90;;;;;;4988611;28;20140;-75
2022/11/28 09:01:21;;;;;;;11.15;6.35;;;-2.30;99.90;;;;;;4989999;28;20046;-74
2022/11/28 09:03:49;;;;;;;11.88;6.80;;;-2.20;99.90;;;;;;4986768;28;20499;-73
2022/11/28 09:06:19;;;;;;;10.73;6.63;;;-2.20;99.90;;;;;;4989111;28;20042;-74
2022/11/28 09:08:47;;;;;;;9.55;6.55;;;-2.20;99.90;;;;;;4990680;28;20072;-74
2022/11/28 09:11:17;;;;;;;10.48;6.38;;;-2.20;99.90;;;;;;4988177;28;20042;-75
2022/11/28 09:13:45;;;;;;;9.20;6.15;;;-2.30;99.90;;;;;;5007423;28;20037;-75
2022/11/28 09:16:14;;;;;;;11.52;6.82;;;-2.30;99.90;;;;;;5026779;28;20579;-75
2022/11/28 09:18:41;;;;;;;11.00;6.70;;;-2.40;99.90;;;;;;5008490;28;20051;-75
2022/11/28 09:21:12;;;;;;;11.20;6.07;;;-2.30;99.90;;;;;;5025079;28;20069;-75
2022/11/28 09:23:43;;;;;;;9.35;5.65;;;-2.20;99.90;;;;;;5025295;28;20072;-74
2022/11/28 09:26:13;;;;;;;13.75;6.50;;;-2.20;99.90;;;;;;5024578;28;20584;-75
2022/11/28 09:28:40;;;;;;;11.50;6.35;;;-2.30;99.90;;;;;;5026473;28;20044;-74
2022/11/28 09:31:09;;;;;;;12.18;6.45;;;-2.30;99.90;;;;;;5023218;28;20587;-76
2022/11/28 09:33:36;;;;;;;10.93;6.63;;;-2.20;99.90;;;;;;5024414;28;20052;-74
2022/11/28 09:36:09;;;;;;;10.80;6.00;;;-2.20;99.90;;;;;;5023206;28;20689;-73
2022/11/28 09:38:38;;;;;;;10.35;6.93;;;-2.20;99.90;;;;;;5024354;28;20046;-75
2022/11/28 09:41:33;;;;;;;11.65;6.43;;;-2.10;99.90;;;;;;5022650;28;20061;-75
2022/11/28 09:44:08;;;;;;;9.40;6.32;;;-2.10;99.90;;;;;;5021881;28;20049;-77
2022/11/28 09:46:41;;;;;;;10.68;6.32;;;-2.10;99.90;;;;;;5022344;28;20148;-77
2022/11/28 09:49:18;;;;;;;;;;;-2.10;99.90;;;;;;5029607;28;20056;-76
2022/11/28 09:51:52;;;;;;;9.90;6.35;;;-2.20;99.90;;;;;;5026209;28;19983;-76
2022/11/28 09:54:27;;;;;;;13.40;6.78;;;-2.20;99.90;;;;;;5062176;28;20072;-76
2022/11/28 09:56:58;;;;;;;9.63;6.15;;;-2.20;99.90;;;;;;5044096;28;20470;-75
2022/11/28 09:59:29;;;;;;;10.43;6.22;;;-2.20;99.90;;;;;;5030026;28;20046;-76
2022/11/28 10:02:07;;;;;;;14.88;7.30;;;-2.20;99.90;;;;;;5027673;28;20045;-75
2022/11/28 10:04:42;;;;;;;11.25;6.43;;;-2.10;99.90;;;;;;5030292;28;20559;-74
2022/11/28 10:07:20;;;;;;;10.45;6.15;;;-2.20;99.90;;;;;;5028345;28;20053;-75
2022/11/28 10:10:00;;;;;;;11.55;6.95;;;-2.10;99.90;;;;;;5029300;28;20053;-76
2022/11/28 10:12:42;;;;;;;13.02;6.80;;;-2.10;99.90;;;;;;5019226;28;20509;-76
2022/11/28 10:15:22;;;;;;;11.25;6.78;;;-2.00;99.90;;;;;;5029304;28;20045;-79
2022/11/28 10:18:07;;;;;;;12.73;6.22;;;-2.10;99.90;;;;;;5028390;28;20054;-75
2022/11/28 10:20:40;;;;;;;12.00;6.57;;;-2.00;99.90;;;;;;5030718;28;20081;-76
2022/11/28 10:23:14;;;;;;;11.18;6.20;;;-2.00;99.90;;;;;;5029463;28;20053;-75
2022/11/28 10:25:46;;;;;;;11.48;6.70;;;-2.00;99.90;;;;;;5011864;28;20081;-74
2022/11/28 10:28:25;;;;;;;14.20;6.85;;;-1.90;99.90;;;;;;5029272;28;20086;-77
2022/11/28 10:31:00;;;;;;;11.63;5.93;;;-2.00;99.90;;;;;;5029177;28;20073;-73
2022/11/28 10:33:33;;;;;;;13.57;7.20;;;-2.00;99.90;;;;;;5030209;28;20056;-77
2022/11/28 10:36:02;;;;;;;;;;;-2.00;99.90;;;;;;5033979;28;20050;-76
2022/11/28 10:38:35;;;;;;;8.13;5.53;;;-1.90;99.90;;;;;;5033323;28;20035;-78
2022/11/28 10:41:13;;;;;;;9.50;6.10;;;-2.00;99.90;;;;;;5032530;28;20049;-77
2022/11/28 10:43:48;;;;;;;9.20;5.63;;;-1.90;99.90;;;;;;5033286;28;20099;-78
2022/11/28 10:46:41;;;;;;;9.48;5.63;;;-1.90;99.90;;;;;;5031283;28;20049;-76
2022/11/28 10:49:24;;;;;;;11.45;6.00;;;-1.80;99.90;;;;;;5032978;28;20520;-78
2022/11/28 10:52:06;;;;;;;10.13;5.80;;;-1.70;99.90;;;;;;5031816;28;20565;-77
2022/11/28 10:55:02;;;;;;;11.10;6.63;;;-1.70;99.90;;;;;;5033573;28;20049;-78
2022/11/28 10:57:40;;;;;;;12.75;6.57;;;-1.70;99.90;;;;;;5032068;28;20111;-76
2022/11/28 11:00:17;;;;;;;9.40;5.70;;;-1.70;99.90;;;;;;5030493;28;20464;-74
2022/11/28 11:02:48;;;;;;;9.65;6.22;;;-1.60;99.90;;;;;;5032321;28;20457;-76
2022/11/28 11:05:18;;;;;;;10.90;6.43;;;-1.60;99.90;;;;;;5030342;28;20059;-77
2022/11/28 11:07:51;;;;;;;7.75;6.10;;;-1.50;99.90;;;;;;5027040;28;20057;-75
2022/11/28 11:10:22;;;;;;;10.35;5.68;;;-1.50;99.90;;;;;;5032492;28;20056;-76
2022/11/28 11:12:52;;;;;;;10.95;6.70;;;-1.50;99.90;;;;;;5044144;28;20560;-77
2022/11/28 11:15:31;;;;;;;10.98;6.45;;;-1.50;99.90;;;;;;5060091;28;20145;-77
2022/11/28 11:18:05;;;;;;;10.45;6.50;;;-1.50;99.90;;;;;;5048292;28;20445;-75
2022/11/28 11:20:38;;;;;;;11.98;7.30;;;-1.40;99.90;;;;;;5028009;28;20045;-74
2022/11/28 11:23:17;;;;;;;10.52;6.95;;;-1.40;99.90;;;;;;5033198;28;20056;-74
2022/11/28 11:25:52;;;;;;;13.60;7.25;;;-1.40;99.90;;;;;;5032463;28;20049;-74
2022/11/28 11:28:40;;;;;;;12.88;7.13;;;-1.40;99.90;;;;;;5031742;28;20056;-74
2022/11/28 11:31:19;;;;;;;13.32;7.85;;;-1.40;99.90;;;;;;5032304;28;20056;-75
2022/11/28 11:33:48;;;;;;;13.52;7.65;;;-1.40;99.90;;;;;;5072789;28;20052;-75
2022/11/28 11:36:31;;;;;;;10.93;6.60;;;-1.40;99.90;;;;;;5034075;28;20572;-75
2022/11/28 11:39:24;;;;;;;11.10;7.60;;;-1.30;99.90;;;;;;5029561;28;20049;-74
2022/11/28 11:42:10;;;;;;;10.75;7.30;;;-1.40;99.90;;;;;;5031683;28;20315;-75
2022/11/28 11:44:38;;;;;;;10.77;6.78;;;-1.40;99.90;;;;;;5031499;28;20057;-76
2022/11/28 11:47:08;;;;;;;12.93;7.57;;;-1.30;99.90;;;;;;5030556;28;20055;-75
2022/11/28 11:49:38;;;;;;;12.05;7.20;;;-1.30;99.90;;;;;;5025508;28;20054;-78
2022/11/28 11:52:15;;;;;;;12.52;7.10;;;-1.30;99.90;;;;;;5038824;28;20076;-76
2022/11/28 11:54:58;;;;;;;11.95;6.88;;;-1.30;99.90;;;;;;5025756;28;20053;-76
2022/11/28 11:57:28;;;;;;;13.60;7.60;;;-1.20;99.90;;;;;;5019244;28;20084;-76
2022/11/28 12:00:00;;;;;;;11.75;7.05;;;-1.20;99.90;;;;;;5028402;28;20144;-74
2022/11/28 12:02:36;;;;;;;15.57;7.10;;;-1.30;99.90;;;;;;5030417;28;20140;-76
2022/11/28 12:05:10;;;;;;;12.45;6.85;;;-1.20;99.90;;;;;;5026352;28;20053;-74
2022/11/28 12:07:48;;;;;;;11.55;6.80;;;-1.20;99.90;;;;;;5029013;28;20049;-73
2022/11/28 12:10:23;;;;;;;12.32;6.78;;;-1.20;99.90;;;;;;5027231;28;20053;-74
2022/11/28 12:12:51;;;;;;;13.30;7.55;;;-1.20;99.90;;;;;;5037018;28;20095;-73
2022/11/28 12:15:31;;;;;;;9.65;6.05;;;-1.20;99.90;;;;;;5023524;28;20041;-72
2022/11/28 12:18:17;;;;;;;13.13;7.03;;;-1.20;99.90;;;;;;5024132;28;20049;-72
2022/11/28 12:21:04;;;;;;;10.55;7.10;;;-1.20;99.90;;;;;;5024675;28;20424;-73
2022/11/28 12:24:02;;;;;;;9.02;5.75;;;-1.20;99.90;;;;;;5024544;28;20464;-73
2022/11/28 12:26:42;;;;;;;10.50;5.65;;;-1.20;99.90;;;;;;5025810;28;20052;-71
2022/11/28 12:29:47;;;;;;;9.88;6.07;;;-1.10;99.90;;;;;;5023235;28;20041;-74
2022/11/28 12:32:32;;;;;;;11.02;6.18;;;-1.20;99.90;;;;;;5002151;28;20413;-74
2022/11/28 12:35:18;;;;;;;10.32;6.07;;;-1.20;99.90;;;;;;5027381;28;20046;-75
2022/11/28 12:37:59;;;;;;;7.65;5.40;;;-1.20;99.90;;;;;;5026662;28;20402;-74
2022/11/28 12:40:36;;;;;;;11.93;6.78;;;-1.30;99.90;;;;;;5023792;28;20184;-71
2022/11/28 12:43:24;;;;;;;9.68;6.10;;;-1.30;99.90;;;;;;5026354;28;20049;-75
2022/11/28 12:46:01;;;;;;;11.50;6.55;;;-1.30;99.90;;;;;;5025281;28;20088;-75
2022/11/28 12:48:51;;;;;;;9.73;6.35;;;-1.20;99.90;;;;;;5024052;28;20115;-73
2022/11/28 12:51:35;;;;;;;9.55;5.95;;;-1.20;99.90;;;;;;5026694;28;20964;-74
2022/11/28 12:54:22;;;;;;;11.85;5.97;;;-1.20;99.90;;;;;;5025233;28;20053;-74
2022/11/28 12:56:58;;;;;;;8.93;6.07;;;-1.20;99.90;;;;;;5023831;28;20059;-74
2022/11/28 12:59:32;;;;;;;8.32;5.85;;;-1.20;99.90;;;;;;5042516;28;20069;-74
2022/11/28 13:02:18;;;;;;;8.45;6.05;;;-1.20;99.90;;;;;;5030760;28;20150;-73
2022/11/28 13:05:18;;;;;;;8.93;5.97;;;-1.30;99.90;;;;;;5023894;28;20065;-75
2022/11/28 13:08:09;;;;;;;9.40;5.63;;;-1.30;99.90;;;;;;5028257;28;20418;-75
2022/11/28 13:10:44;;;;;;;9.95;6.85;;;-1.30;99.90;;;;;;5013133;28;20049;-73
2022/11/28 13:13:18;;;;;;;9.77;5.97;;;-1.30;99.90;;;;;;5024554;28;20049;-72
2022/11/28 13:16:00;;;;;;;10.48;6.30;;;-1.30;99.90;;;;;;5024690;28;20072;-73
2022/11/28 13:18:38;;;;;;;12.40;6.50;;;-1.20;99.90;;;;;;5022775;28;20045;-74